메인 페이지
METAR-TAF:

METAR-TAF

공항 :

위치토, 캔자스, 미국

위도: 37-37N, 경도: 097-16W, 고도: 418m

현재 날씨관측

예보는 36분 전, 16:56시(UTC)에 발표되었습니다.
북동11kt
온도 19°C
습도 40%
기압 1031 hPa
시정: 16.1km
고도 20000ft 상공 구름 조금

METAR: KIAB 171656Z AUTO 05011KT 10SM FEW200 19/05 A3046 RMK AO2 SLP316 T01880045 $

시각: 12:32 (17:32 UTC)

예보

예보는 7 시간 32분 전, 10:00시(UTC)에 발표되었습니다.
예보 대상 시간: 17일 10시부터 18일 16시까지 (UTC)
여러 방향의 바람 6kt
시정 10km 이상
맑음
전환 중
17일 17시부터 17일 18시까지 (UTC)
북동10kt, 순간 최대 풍속 15kt
시정 10km 이상
맑음
전환 중
17일 23시부터 17일 24시까지 (UTC)
북북동6kt
시정 10km 이상
고도 30000ft 상공 구름 조금
전환 중
18일 11시부터 18일 12시까지 (UTC)
6kt
시정 10km 이상
고도 12000ft 상공 구름 조금

TAF: KIAB 171000Z 1710/1816 VRB06KT 9999 SKC QNH3033INS BECMG 1717/1718 05010G15KT 9999 SKC QNH3045INS BECMG 1723/1724 03006KT 9999 FEW300 QNH3046INS BECMG 1811/1812 09006KT 9999 FEW120 QNH3050INS TX17/1720Z TN03/1711Z

4,000개 이상의 공항 관측 자료 및 예보 (METAR 및 TAF 보고).

지도상에서 검색 가능한 기상관측소가 노란 점과 빨간 점으로 표시되어 있습니다.

기상관측소 명을 보려면 표시 위로 마우스를 이동하세요.

날씨 관측과 예보를 보려면 클릭하세요.

지도 변경 : 확대하려면 엑스 표시가 있는 녹색 버튼, 축소하려면 빼기 표시가 있는 녹색 버튼, 다음 페이지의 지도를 보려면 녹색 화살표를 클릭하세요.


METAR-TAF: